Airfield :
LOGIN :

Register | Disclaimer

   EN    FR    IT 

 










Legend :    VFR   Marginal VFR   IFR   Intensive IFR   Very Intensive IFR
Visi :
Ceiling :
>= 8 km
>= 3000ft
5 to 8 km
1000 to 3000 ft
1500m to 5 km
500 to 1000 ft
800 to 1500m
200 to 500 ft
< 800m
< 200 ft
Symbols :   Thunderstorms  Fog  Heavy snow  Heavy precipitations  Wind > 20 kt
SIGMETs :     Misc.  Thunderstorms  Icing  Turbulence  Mountain Waves  Volcanic Ashes






- Airport Elevation : 584 ft


LFPV - Villacoublay Vélizy

CURRENT METAR :
  • 171230Z AUTO 28009KT 240V300 9999 SCT038/// BKN052/// BKN084/// ///CB 11/04 Q1014 TEMPO 34015G30KT 4000 -SHRA

EXPIRED METARs :
  • 171200Z AUTO 30008KT 260V340 9999 FEW018/// BKN088/// BKN200/// ///TCU 10/03 Q1014 TEMPO 34015G30KT 4000 -SHRA BKN025CB
  • 171130Z AUTO 33012KT 260V010 9999 -RA FEW018/// SCT032/// BKN043/// ///TCU 07/01 Q1015 TEMPO 34015G30KT 4000 -SHRA BKN025CB
  • 171100Z AUTO 29008KT 250V320 9999 SCT046/// BKN066/// BKN076/// //////CB 10/01 Q1015 TEMPO 34015G30KT 4000 -SHRA
  • 171030Z AUTO 27008KT 240V320 9999 SCT041/// SCT047/// BKN066/// ///TCU 11/02 Q1015 TEMPO 34015G30KT 4000 -SHRA BKN025CB
  • 171000Z AUTO 31009KT 9999 FEW037 BKN062 BKN072 10/02 Q1015 TEMPO 34015G30KT 4000 -SHRA BKN025CB
  • 170930Z AUTO 31009KT 250V340 9999 BKN036 BKN045 BKN054 09/03 Q1016 TEMPO 34015G30KT 4000 -SHRA BKN025CB
  • 170900Z AUTO 32010KT 280V010 9999 SCT031 BKN038 09/02 Q1016 NOSIG
  • 170830Z AUTO 32010KT 280V350 9999 BKN029 BKN036 09/03 Q1016 NOSIG
  • 170800Z AUTO 31009KT 260V350 9999 FEW014 SCT021 BKN027 08/04 Q1016 TEMPO 4900 -SHRA SCT015 BKN020TCU

TAF TAF LFPV
Valid from the 17 at 09:00 until the 18 at 09:00 UTC


170800Z 1709/1809 31008KT 9999 BKN025 BKN030 TX10/1715Z TN05/1803Z
TEMPO 1711/1717 34010G30KT 4000 -SHRA SCT015 SCT025TCU
PROB30
TEMPO 1711/1716 34015G30KT GSRA BKN025CB
PROB30 1804/1806 SCT009



MET'MAP, your aeronautical weather chart ! - Copyright ORBIFLY December 2007 - Disclaimer

ORBIFLY MET'MAP TEAM :

Programming & Development : Alexandra Zaïnal
Original concept : Baudouin d'Aumeries
Technical & hardware support : Manuel Goepfert
Assistance : Marc-Olivier Méhu




SOURCES & CREDITS :

   NOAA